createdAt,value
2023-04-15T00:01:45.092Z,9.17
2023-04-15T00:04:13.014Z,9.16
2023-04-15T00:06:40.992Z,9.08
2023-04-15T00:09:08.866Z,9.03
2023-04-15T00:11:38.021Z,9.07
2023-04-15T00:14:06.236Z,9.11
2023-04-15T00:16:34.046Z,9.03
2023-04-15T00:19:01.954Z,9.05
2023-04-15T00:21:30.060Z,9.03
2023-04-15T00:23:57.867Z,8.99
2023-04-15T00:26:25.586Z,8.95
2023-04-15T00:28:55.069Z,8.91
2023-04-15T00:31:23.108Z,8.87
2023-04-15T00:33:51.060Z,8.88
2023-04-15T00:36:18.835Z,8.79
2023-04-15T00:38:46.562Z,8.74
2023-04-15T00:41:14.573Z,8.79
2023-04-15T00:43:42.374Z,8.78
2023-04-15T00:46:16.898Z,8.81
2023-04-15T00:48:45.086Z,8.76
2023-04-15T00:51:13.195Z,8.65
2023-04-15T00:53:41.133Z,8.60
2023-04-15T00:56:09.096Z,8.62
2023-04-15T00:58:37.120Z,8.54
2023-04-15T01:01:05.573Z,8.56
2023-04-15T01:03:35.374Z,8.55
2023-04-15T01:06:04.412Z,8.54
2023-04-15T01:08:32.574Z,8.54
2023-04-15T01:11:03.490Z,8.52
2023-04-15T01:13:32.320Z,8.48
2023-04-15T01:16:00.236Z,8.45
2023-04-15T01:18:28.570Z,8.44
2023-04-15T01:20:58.192Z,8.41
2023-04-15T01:23:26.310Z,8.38
2023-04-15T01:25:57.349Z,8.38
2023-04-15T01:28:25.409Z,8.33
2023-04-15T01:31:07.484Z,8.25
2023-04-15T01:33:38.542Z,8.21
2023-04-15T01:36:10.003Z,8.15
2023-04-15T01:38:38.438Z,8.11
2023-04-15T01:41:08.225Z,8.02
2023-04-15T01:43:37.234Z,7.94
2023-04-15T01:46:05.143Z,7.93
2023-04-15T01:48:33.466Z,7.85
2023-04-15T01:51:01.431Z,7.78
2023-04-15T01:53:29.444Z,7.78
2023-04-15T01:55:57.236Z,7.82
2023-04-15T01:58:27.182Z,7.81
2023-04-15T02:00:55.447Z,7.76
2023-04-15T02:03:23.639Z,7.75
2023-04-15T02:05:53.578Z,7.75
2023-04-15T02:08:22.414Z,7.77
2023-04-15T02:10:50.343Z,7.78
2023-04-15T02:13:18.167Z,7.76
2023-04-15T02:15:50.033Z,7.70
2023-04-15T02:18:20.501Z,7.68
2023-04-15T02:20:48.811Z,7.61
2023-04-15T02:23:16.814Z,7.58
2023-04-15T02:25:53.432Z,7.53
2023-04-15T02:28:22.179Z,7.53
2023-04-15T02:30:53.327Z,7.52
2023-04-15T02:33:22.518Z,7.52
2023-04-15T02:35:50.834Z,7.50
2023-04-15T02:38:18.638Z,7.46
2023-04-15T02:40:46.618Z,7.45
2023-04-15T02:43:14.385Z,7.39
2023-04-15T02:45:43.520Z,7.33
2023-04-15T02:48:12.784Z,7.38
2023-04-15T02:50:40.803Z,7.42
2023-04-15T02:53:10.503Z,7.45
2023-04-15T02:55:38.248Z,7.43
2023-04-15T02:58:06.097Z,7.43
2023-04-15T03:00:34.009Z,7.40
2023-04-15T03:03:05.640Z,7.36
2023-04-15T03:05:34.971Z,7.32
2023-04-15T03:08:05.299Z,7.27
2023-04-15T03:10:33.054Z,7.26
2023-04-15T03:13:02.673Z,7.16
2023-04-15T03:15:30.773Z,7.11
2023-04-15T03:17:58.663Z,7.09
2023-04-15T03:20:26.505Z,7.03
2023-04-15T03:22:55.870Z,6.99
2023-04-15T03:25:25.096Z,6.97
2023-04-15T03:27:52.919Z,6.90
2023-04-15T03:30:20.759Z,6.92
2023-04-15T03:32:48.575Z,6.93
2023-04-15T03:35:17.097Z,6.96
2023-04-15T03:37:44.904Z,6.98
2023-04-15T03:40:14.302Z,6.98
2023-04-15T03:42:42.098Z,6.97
2023-04-15T03:45:10.786Z,6.92
2023-04-15T03:47:38.643Z,6.94
2023-04-15T03:50:07.492Z,6.93
2023-04-15T03:52:35.435Z,6.85
2023-04-15T03:55:03.309Z,6.87
2023-04-15T03:57:32.416Z,6.89
2023-04-15T04:00:00.224Z,6.89
2023-04-15T04:02:28.297Z,6.88
2023-04-15T04:04:56.294Z,6.86
2023-04-15T04:07:25.479Z,6.80
2023-04-15T04:09:53.352Z,6.81
2023-04-15T04:12:21.087Z,6.77
2023-04-15T04:14:50.453Z,6.76
2023-04-15T04:17:18.319Z,6.74
2023-04-15T04:19:46.398Z,6.68
2023-04-15T04:22:14.133Z,6.67
2023-04-15T04:24:41.914Z,6.61
2023-04-15T04:27:09.666Z,6.56
2023-04-15T04:29:37.406Z,6.57
2023-04-15T04:32:07.026Z,6.53
2023-04-15T04:34:34.838Z,6.51
2023-04-15T04:37:02.641Z,6.45
2023-04-15T04:39:30.508Z,6.42
2023-04-15T04:41:58.278Z,6.46
2023-04-15T04:44:26.153Z,6.43
2023-04-15T04:46:54.095Z,6.40
2023-04-15T04:49:23.197Z,6.30
2023-04-15T04:51:51.449Z,6.27
2023-04-15T04:54:19.228Z,6.27
2023-04-15T04:56:47.066Z,6.21
2023-04-15T04:59:14.828Z,6.13
2023-04-15T05:01:42.887Z,6.10
2023-04-15T05:04:10.786Z,6.08
2023-04-15T05:06:39.961Z,6.02
2023-04-15T05:09:08.105Z,6.04
2023-04-15T05:11:35.951Z,6.02
2023-04-15T05:14:03.713Z,6.10
2023-04-15T05:16:31.514Z,6.09
2023-04-15T05:18:59.499Z,6.10
2023-04-15T05:21:27.662Z,6.16
2023-04-15T05:23:56.787Z,6.20
2023-04-15T05:26:24.896Z,6.22
2023-04-15T05:28:52.658Z,6.23
2023-04-15T05:31:20.994Z,6.22
2023-04-15T05:33:48.841Z,6.20
2023-04-15T05:36:16.673Z,6.20
2023-04-15T05:38:44.438Z,6.22
2023-04-15T05:41:16.586Z,6.25
2023-04-15T05:43:46.473Z,6.27
2023-04-15T05:46:14.304Z,6.30
2023-04-15T05:48:42.152Z,6.33
2023-04-15T05:51:10.551Z,6.36
2023-04-15T05:53:38.355Z,6.37
2023-04-15T05:56:06.557Z,6.39
2023-04-15T05:58:35.756Z,6.41
2023-04-15T06:01:04.002Z,6.40
2023-04-15T06:03:31.931Z,6.43
2023-04-15T06:06:00.870Z,6.45
2023-04-15T06:08:28.869Z,6.49
2023-04-15T06:10:56.749Z,6.51
2023-04-15T06:13:24.561Z,6.52
2023-04-15T06:15:54.076Z,6.57
2023-04-15T06:18:22.236Z,6.63
2023-04-15T06:20:50.061Z,6.67
2023-04-15T06:23:17.874Z,6.74
2023-04-15T06:25:45.773Z,6.79
2023-04-15T06:28:13.676Z,6.89
2023-04-15T06:30:41.516Z,6.98
2023-04-15T06:33:10.785Z,7.08
2023-04-15T06:35:39.172Z,7.22
2023-04-15T06:38:07.079Z,7.35
2023-04-15T06:40:35.986Z,7.49
2023-04-15T06:43:04.830Z,7.67
2023-04-15T06:45:32.665Z,8.00
2023-04-15T06:48:00.707Z,8.29
2023-04-15T06:50:29.926Z,8.63
2023-04-15T06:52:58.241Z,8.94
2023-04-15T06:55:26.003Z,9.18
2023-04-15T06:57:53.765Z,9.56
2023-04-15T07:00:21.588Z,9.98
2023-04-15T07:02:52.786Z,10.41
2023-04-15T07:05:20.715Z,10.81
2023-04-15T07:07:50.210Z,11.20
2023-04-15T07:10:18.256Z,11.46
2023-04-15T07:12:46.179Z,11.56
2023-04-15T07:15:13.953Z,11.61
2023-04-15T07:17:43.142Z,11.64
2023-04-15T07:20:11.798Z,11.66
2023-04-15T07:22:39.732Z,11.68
2023-04-15T07:25:10.131Z,11.72
2023-04-15T07:27:37.943Z,11.72
2023-04-15T07:30:06.786Z,11.83
2023-04-15T07:32:34.627Z,11.98
2023-04-15T07:35:03.707Z,12.14
2023-04-15T07:37:31.532Z,12.39
2023-04-15T07:39:59.270Z,12.68
2023-04-15T07:42:29.226Z,12.96
2023-04-15T07:44:57.748Z,13.22
2023-04-15T07:47:25.761Z,13.56
2023-04-15T07:49:54.064Z,13.88
2023-04-15T07:52:22.286Z,14.04
2023-04-15T07:54:50.036Z,14.24
2023-04-15T07:57:18.377Z,14.48
2023-04-15T07:59:47.501Z,14.66
2023-04-15T08:02:15.463Z,14.84
2023-04-15T08:04:43.589Z,14.93
2023-04-15T08:07:11.780Z,15.07
2023-04-15T08:09:39.532Z,15.17
2023-04-15T08:12:09.439Z,15.49
2023-04-15T08:14:37.239Z,15.85
2023-04-15T08:17:06.687Z,16.14
2023-04-15T08:19:34.501Z,16.42
2023-04-15T08:22:02.405Z,16.63
2023-04-15T08:24:31.476Z,16.91
2023-04-15T08:26:59.889Z,17.11
2023-04-15T08:29:27.757Z,17.23
2023-04-15T08:31:55.737Z,17.35
2023-04-15T08:34:25.272Z,17.52
2023-04-15T08:36:53.085Z,17.68
2023-04-15T08:39:20.997Z,17.91
2023-04-15T08:41:52.748Z,18.03
2023-04-15T08:44:22.129Z,17.96
2023-04-15T08:46:50.516Z,17.85
2023-04-15T08:49:20.232Z,17.82
2023-04-15T08:51:50.231Z,17.82
2023-04-15T08:54:18.074Z,17.82
2023-04-15T08:56:46.248Z,17.75
2023-04-15T08:59:14.904Z,17.74
2023-04-15T09:01:42.954Z,17.97
2023-04-15T09:04:12.630Z,18.13
2023-04-15T09:06:41.601Z,18.25
2023-04-15T09:09:10.748Z,18.40
2023-04-15T09:11:38.629Z,18.54
2023-04-15T09:14:06.426Z,18.72
2023-04-15T09:16:57.752Z,19.12
2023-04-15T09:19:26.260Z,18.96
2023-04-15T09:21:58.411Z,19.32
2023-04-15T09:24:38.380Z,19.46
2023-04-15T09:27:06.839Z,19.49
2023-04-15T09:29:34.831Z,19.44
2023-04-15T09:32:13.537Z,19.53
2023-04-15T09:34:41.341Z,18.98
2023-04-15T09:37:10.873Z,19.19
2023-04-15T09:39:51.007Z,19.10
2023-04-15T09:42:24.345Z,19.00
2023-04-15T09:44:52.921Z,19.02
2023-04-15T09:47:38.795Z,19.23
2023-04-15T09:50:07.600Z,19.02
2023-04-15T09:52:43.005Z,18.92
2023-04-15T09:55:13.008Z,18.68
2023-04-15T09:57:42.417Z,18.63
2023-04-15T10:00:11.373Z,18.43
2023-04-15T10:02:40.955Z,18.33
2023-04-15T10:05:11.917Z,18.38
2023-04-15T10:07:41.039Z,18.37
2023-04-15T10:10:09.595Z,18.68
2023-04-15T10:12:42.110Z,18.97
2023-04-15T10:15:17.530Z,19.27
2023-04-15T10:17:46.271Z,19.20
2023-04-15T10:20:15.962Z,19.20
2023-04-15T10:22:46.381Z,19.18
2023-04-15T10:25:16.394Z,19.46
2023-04-15T10:27:46.461Z,19.48
2023-04-15T10:30:14.671Z,19.59
2023-04-15T10:32:43.273Z,19.86
2023-04-15T10:35:12.173Z,19.94
2023-04-15T10:37:40.322Z,20.21
2023-04-15T10:40:29.139Z,20.41
2023-04-15T10:42:59.448Z,20.47
2023-04-15T10:45:28.839Z,20.67
2023-04-15T10:47:58.086Z,20.72
2023-04-15T10:50:29.733Z,20.45
2023-04-15T10:52:58.362Z,20.16
2023-04-15T10:55:27.802Z,19.96
2023-04-15T10:57:56.879Z,19.87
2023-04-15T11:00:29.710Z,19.82
2023-04-15T11:03:01.194Z,19.89
2023-04-15T11:05:50.387Z,19.81
2023-04-15T11:08:18.314Z,19.60
2023-04-15T11:10:55.243Z,19.37
2023-04-15T11:13:31.689Z,19.24
2023-04-15T11:16:02.566Z,19.29
2023-04-15T11:18:36.299Z,19.65
2023-04-15T11:21:06.793Z,19.44
2023-04-15T11:23:38.021Z,19.15
2023-04-15T11:26:09.535Z,19.14
2023-04-15T11:28:39.164Z,18.83
2023-04-15T11:31:11.813Z,18.93
2023-04-15T11:33:46.899Z,19.06
2023-04-15T11:36:14.887Z,19.32
2023-04-15T11:38:47.454Z,19.37
2023-04-15T11:41:15.454Z,19.42
2023-04-15T11:43:43.795Z,19.58
2023-04-15T11:46:13.036Z,19.48
2023-04-15T11:48:44.328Z,19.57
2023-04-15T11:51:13.145Z,19.92
2023-04-15T11:53:42.486Z,20.17
2023-04-15T11:56:11.721Z,20.42
2023-04-15T11:58:40.193Z,20.47
2023-04-15T12:01:08.359Z,20.51
2023-04-15T12:03:42.462Z,20.58
2023-04-15T12:06:17.053Z,20.63
2023-04-15T12:09:02.868Z,20.43
2023-04-15T12:11:33.306Z,20.48
2023-04-15T12:14:05.856Z,20.97
2023-04-15T12:16:37.261Z,20.93
2023-04-15T12:19:24.197Z,21.08
2023-04-15T12:21:53.452Z,21.18
2023-04-15T12:24:23.684Z,20.84
2023-04-15T12:26:53.398Z,20.58
2023-04-15T12:29:22.180Z,20.15
2023-04-15T12:31:52.376Z,19.90
2023-04-15T12:34:29.430Z,20.10
2023-04-15T12:36:58.906Z,20.04
2023-04-15T12:39:29.978Z,20.15
2023-04-15T12:41:58.772Z,19.97
2023-04-15T12:44:27.146Z,20.03
2023-04-15T12:46:55.513Z,19.78
2023-04-15T12:49:25.498Z,19.45
2023-04-15T12:51:55.339Z,19.02
2023-04-15T12:54:23.516Z,19.00
2023-04-15T12:56:52.295Z,19.13
2023-04-15T12:59:20.125Z,19.26
2023-04-15T13:01:48.825Z,18.80
2023-04-15T13:04:17.619Z,19.19
2023-04-15T13:06:46.774Z,19.15
2023-04-15T13:09:14.598Z,18.97
2023-04-15T13:11:42.559Z,18.92
2023-04-15T13:14:11.446Z,18.16
2023-04-15T13:16:39.834Z,17.55
2023-04-15T13:19:07.977Z,17.47
2023-04-15T13:21:36.420Z,17.46
2023-04-15T13:24:07.204Z,17.63
2023-04-15T13:26:34.987Z,17.49
2023-04-15T13:29:02.896Z,17.40
2023-04-15T13:31:30.741Z,17.25
2023-04-15T13:33:58.553Z,17.41
2023-04-15T13:36:26.412Z,17.46
2023-04-15T13:38:54.215Z,16.65
2023-04-15T13:41:23.364Z,16.76
2023-04-15T13:43:51.193Z,16.66
2023-04-15T13:46:19.200Z,16.55
2023-04-15T13:48:46.993Z,16.66
2023-04-15T13:51:14.804Z,16.45
2023-04-15T13:53:42.567Z,16.60
2023-04-15T13:56:10.797Z,16.21
2023-04-15T13:58:41.506Z,16.09
2023-04-15T14:01:09.511Z,15.89
2023-04-15T14:03:37.490Z,16.09
2023-04-15T14:06:06.171Z,16.01
2023-04-15T14:08:34.189Z,15.89
2023-04-15T14:11:02.063Z,15.74
2023-04-15T14:13:30.076Z,15.84
2023-04-15T14:15:59.380Z,15.88
2023-04-15T14:18:27.283Z,15.56
2023-04-15T14:20:55.541Z,15.46
2023-04-15T14:23:23.426Z,15.46
2023-04-15T14:25:51.718Z,15.24
2023-04-15T14:28:19.483Z,14.70
2023-04-15T14:30:47.459Z,14.17
2023-04-15T14:33:16.770Z,13.79
2023-04-15T14:35:44.574Z,14.08
2023-04-15T14:38:12.354Z,13.92
2023-04-15T14:40:40.255Z,13.76
2023-04-15T14:43:08.126Z,13.58
2023-04-15T14:45:36.327Z,13.44
2023-04-15T14:48:04.514Z,13.52
2023-04-15T14:50:33.740Z,13.62
2023-04-15T14:53:01.488Z,13.74
2023-04-15T14:55:29.272Z,13.87
2023-04-15T14:57:57.059Z,14.03
2023-04-15T15:00:24.822Z,14.12
2023-04-15T15:02:52.699Z,13.83
2023-04-15T15:05:20.812Z,13.43
2023-04-15T15:07:49.977Z,13.28
2023-04-15T15:10:17.929Z,13.30
2023-04-15T15:13:06.798Z,13.22
2023-04-15T15:15:34.889Z,13.39
2023-04-15T15:18:03.238Z,13.05
2023-04-15T15:20:31.701Z,12.92
2023-04-15T15:23:01.248Z,13.00
2023-04-15T15:25:29.771Z,12.98
2023-04-15T15:27:58.971Z,12.96
2023-04-15T15:30:27.010Z,12.77
2023-04-15T15:32:54.953Z,12.68
2023-04-15T15:35:23.627Z,12.87
2023-04-15T15:37:51.574Z,12.84
2023-04-15T15:40:20.762Z,12.77
2023-04-15T15:42:49.915Z,12.63
2023-04-15T15:45:18.304Z,12.53
2023-04-15T15:47:46.291Z,12.56
2023-04-15T15:50:14.792Z,12.53
2023-04-15T15:52:42.605Z,12.40
2023-04-15T15:55:10.709Z,12.24
2023-04-15T15:57:39.967Z,12.18
2023-04-15T16:00:12.712Z,12.30
2023-04-15T16:05:12.024Z,12.11
2023-04-15T16:07:39.797Z,12.02
2023-04-15T16:10:08.676Z,12.03
2023-04-15T16:12:36.601Z,12.06
2023-04-15T16:15:06.721Z,12.22
2023-04-15T16:17:34.737Z,12.17
2023-04-15T16:20:05.406Z,11.73
2023-04-15T16:22:33.657Z,11.73
2023-04-15T16:25:02.111Z,11.65
2023-04-15T16:27:29.976Z,11.53
2023-04-15T16:29:57.723Z,11.38
2023-04-15T16:32:27.982Z,11.44
2023-04-15T16:34:56.160Z,11.28
2023-04-15T16:37:24.053Z,11.07
2023-04-15T16:39:51.847Z,11.20
2023-04-15T16:42:19.752Z,11.10
2023-04-15T16:44:47.509Z,10.97
2023-04-15T16:47:15.307Z,10.94
2023-04-15T16:49:44.434Z,10.96
2023-04-15T16:52:12.218Z,10.67
2023-04-15T16:54:41.418Z,10.82
2023-04-15T16:57:09.370Z,10.90
2023-04-15T16:59:37.230Z,10.84
2023-04-15T17:02:05.185Z,10.90
2023-04-15T17:04:33.392Z,10.85
2023-04-15T17:07:02.713Z,10.72
2023-04-15T17:09:30.477Z,10.44
2023-04-15T17:11:58.586Z,10.44
2023-04-15T17:14:26.422Z,10.59
2023-04-15T17:16:54.275Z,10.59
2023-04-15T17:19:22.252Z,10.60
2023-04-15T17:21:50.100Z,10.53
2023-04-15T17:24:19.297Z,10.39
2023-04-15T17:26:47.870Z,10.39
2023-04-15T17:29:15.591Z,10.41
2023-04-15T17:31:43.494Z,10.32
2023-04-15T17:34:12.640Z,10.35
2023-04-15T17:36:41.795Z,10.35
2023-04-15T17:39:09.593Z,10.22
2023-04-15T17:41:38.788Z,10.19
2023-04-15T17:44:06.783Z,10.12
2023-04-15T17:46:34.933Z,10.01
2023-04-15T17:49:03.343Z,10.11
2023-04-15T17:51:31.738Z,10.19
2023-04-15T17:54:08.076Z,10.01
2023-04-15T17:56:35.911Z,10.05
2023-04-15T17:59:05.009Z,10.08
2023-04-15T18:01:32.849Z,10.04
2023-04-15T18:04:00.842Z,10.12
2023-04-15T18:06:28.739Z,10.04
2023-04-15T18:08:56.589Z,10.08
2023-04-15T18:11:24.395Z,10.07
2023-04-15T18:13:52.231Z,10.06
2023-04-15T18:16:21.581Z,10.04
2023-04-15T18:18:49.394Z,10.09
2023-04-15T18:21:17.146Z,10.03
2023-04-15T18:23:45.060Z,10.04
2023-04-15T18:26:12.802Z,9.92
2023-04-15T18:28:40.656Z,9.87
2023-04-15T18:31:08.488Z,9.85
2023-04-15T18:33:37.657Z,9.79
2023-04-15T18:36:05.618Z,9.79
2023-04-15T18:38:33.385Z,9.82
2023-04-15T18:41:01.312Z,9.81
2023-04-15T18:43:29.070Z,9.84
2023-04-15T18:45:56.958Z,9.84
2023-04-15T18:48:24.823Z,9.86
2023-04-15T18:50:54.345Z,9.77
2023-04-15T18:53:22.497Z,9.70
2023-04-15T18:55:50.466Z,9.74
2023-04-15T18:58:18.361Z,9.73
2023-04-15T19:00:46.249Z,9.55
2023-04-15T19:03:14.158Z,9.42
2023-04-15T19:05:41.969Z,9.54
2023-04-15T19:08:11.721Z,9.53
2023-04-15T19:10:39.691Z,9.31
2023-04-15T19:13:07.528Z,9.32
2023-04-15T19:15:35.352Z,9.37
2023-04-15T19:18:05.296Z,9.40
2023-04-15T19:20:36.644Z,9.31
2023-04-15T19:23:06.163Z,9.19
2023-04-15T19:25:35.351Z,9.16
2023-04-15T19:28:03.218Z,9.07
2023-04-15T19:30:32.370Z,9.01
2023-04-15T19:33:00.317Z,9.01
2023-04-15T19:35:28.189Z,9.08
2023-04-15T19:37:56.037Z,9.06
2023-04-15T19:40:23.850Z,9.17
2023-04-15T19:42:53.065Z,9.13
2023-04-15T19:45:20.991Z,9.12
2023-04-15T19:47:49.067Z,9.07
2023-04-15T19:50:17.020Z,9.00
2023-04-15T19:52:44.797Z,8.97
2023-04-15T19:55:12.592Z,8.96
2023-04-15T19:57:40.823Z,8.94
2023-04-15T20:00:11.356Z,9.06
2023-04-15T20:02:39.241Z,9.01
2023-04-15T20:05:09.824Z,8.88
2023-04-15T20:07:39.607Z,8.90
2023-04-15T20:10:12.134Z,8.84
2023-04-15T20:12:50.394Z,8.81
2023-04-15T20:15:23.887Z,8.88
2023-04-15T20:17:52.125Z,8.84
2023-04-15T20:20:20.366Z,8.79
2023-04-15T20:22:48.186Z,8.88
2023-04-15T20:25:16.238Z,8.90
2023-04-15T20:27:44.030Z,8.96
2023-04-15T20:30:12.462Z,9.01
2023-04-15T20:32:41.633Z,8.99
2023-04-15T20:35:09.637Z,9.02
2023-04-15T20:37:40.336Z,8.96
2023-04-15T20:40:09.266Z,8.95
2023-04-15T20:42:37.033Z,9.01
2023-04-15T20:45:06.969Z,9.10
2023-04-15T20:47:34.802Z,9.06
2023-04-15T20:50:03.970Z,9.12
2023-04-15T20:52:31.831Z,9.09
2023-04-15T20:54:59.596Z,8.96
2023-04-15T20:57:28.706Z,9.02
2023-04-15T20:59:56.510Z,9.05
2023-04-15T21:02:24.710Z,9.04
2023-04-15T21:04:52.650Z,8.96
2023-04-15T21:07:21.801Z,9.02
2023-04-15T21:09:49.636Z,8.95
2023-04-15T21:12:17.457Z,8.81
2023-04-15T21:14:45.477Z,8.77
2023-04-15T21:17:13.291Z,8.75
2023-04-15T21:19:41.344Z,8.78
2023-04-15T21:22:09.120Z,8.72
2023-04-15T21:24:38.276Z,8.66
2023-04-15T21:27:06.354Z,8.64
2023-04-15T21:29:34.219Z,8.71
2023-04-15T21:32:02.069Z,8.75
2023-04-15T21:34:29.938Z,8.71
2023-04-15T21:36:57.709Z,8.74
2023-04-15T21:39:25.745Z,8.68
2023-04-15T21:41:54.989Z,8.68
2023-04-15T21:44:22.773Z,8.73
2023-04-15T21:46:51.002Z,8.77
2023-04-15T21:49:20.255Z,8.65
2023-04-15T21:51:48.531Z,8.68
2023-04-15T21:54:16.556Z,8.72
2023-04-15T21:56:44.385Z,8.70
2023-04-15T21:59:13.534Z,8.68
2023-04-15T22:01:41.336Z,8.71
2023-04-15T22:04:10.920Z,8.72
2023-04-15T22:06:39.392Z,8.74
2023-04-15T22:09:07.197Z,8.65
2023-04-15T22:11:35.005Z,8.70
2023-04-15T22:14:02.743Z,8.65
2023-04-15T22:16:31.948Z,8.54
2023-04-15T22:18:59.743Z,8.60
2023-04-15T22:21:27.847Z,8.57
2023-04-15T22:24:32.271Z,8.63
2023-04-15T22:26:43.646Z,8.62
2023-04-15T22:29:11.650Z,8.62
2023-04-15T22:31:40.845Z,8.65
2023-04-15T22:34:08.799Z,8.63
2023-04-15T22:36:36.620Z,8.67
2023-04-15T22:39:04.746Z,8.66
2023-04-15T22:41:32.689Z,8.67
2023-04-15T22:44:00.474Z,8.71
2023-04-15T22:46:28.255Z,8.73
2023-04-15T22:48:57.433Z,8.66
2023-04-15T22:51:26.926Z,8.65
2023-04-15T22:53:54.866Z,8.61
2023-04-15T22:56:23.525Z,8.64
2023-04-15T22:58:51.712Z,8.60
2023-04-15T23:01:20.781Z,8.54
2023-04-15T23:03:57.957Z,8.56
2023-04-15T23:06:34.638Z,8.58
2023-04-15T23:09:02.448Z,8.60
2023-04-15T23:11:30.308Z,8.61
2023-04-15T23:13:58.131Z,8.62
2023-04-15T23:16:26.038Z,8.63
2023-04-15T23:18:53.938Z,8.56
2023-04-15T23:21:22.216Z,8.58
2023-04-15T23:23:52.329Z,8.63
2023-04-15T23:26:20.109Z,8.69
2023-04-15T23:28:47.864Z,8.63
2023-04-15T23:31:15.619Z,8.66
2023-04-15T23:33:43.417Z,8.68
2023-04-15T23:36:11.191Z,8.66
2023-04-15T23:38:38.936Z,8.66
2023-04-15T23:41:08.870Z,8.61
2023-04-15T23:43:36.664Z,8.58
2023-04-15T23:46:04.496Z,8.56
2023-04-15T23:48:32.642Z,8.56
2023-04-15T23:51:01.566Z,8.53
2023-04-15T23:53:30.018Z,8.50
2023-04-15T23:55:57.923Z,8.50
2023-04-15T23:58:27.060Z,8.49
